createdAt,value
2018-06-14T00:01:48.226Z,78.96
2018-06-14T00:04:17.091Z,79.76
2018-06-14T00:06:45.893Z,79.91
2018-06-14T00:09:14.617Z,81.00
2018-06-14T00:11:43.409Z,81.21
2018-06-14T00:14:12.172Z,81.41
2018-06-14T00:16:40.908Z,81.08
2018-06-14T00:19:09.629Z,81.83
2018-06-14T00:21:38.391Z,82.27
2018-06-14T00:24:07.129Z,82.19
2018-06-14T00:26:35.879Z,81.51
2018-06-14T00:29:04.662Z,81.20
2018-06-14T00:31:33.405Z,82.26
2018-06-14T00:34:02.127Z,82.08
2018-06-14T00:36:30.926Z,81.74
2018-06-14T00:38:59.674Z,82.61
2018-06-14T00:41:28.402Z,82.05
2018-06-14T00:43:57.192Z,81.63
2018-06-14T00:48:53.598Z,82.84
2018-06-14T00:51:22.451Z,81.76
2018-06-14T00:53:51.233Z,82.34
2018-06-14T00:56:20.030Z,82.03
2018-06-14T00:58:48.788Z,81.52
2018-06-14T01:01:17.530Z,81.47
2018-06-14T01:03:46.271Z,81.41
2018-06-14T01:06:15.066Z,81.58
2018-06-14T01:08:43.815Z,81.23
2018-06-14T01:11:13.189Z,80.51
2018-06-14T01:13:41.955Z,81.10
2018-06-14T01:16:10.704Z,80.34
2018-06-14T01:18:39.429Z,80.48
2018-06-14T01:21:08.217Z,82.22
2018-06-14T01:23:36.962Z,82.66
2018-06-14T01:26:05.781Z,82.60
2018-06-14T01:28:34.549Z,82.66
2018-06-14T01:31:03.286Z,81.44
2018-06-14T01:33:32.069Z,81.38
2018-06-14T01:36:00.843Z,81.49
2018-06-14T01:38:29.595Z,81.98
2018-06-14T01:40:58.341Z,82.48
2018-06-14T01:43:27.122Z,83.68
2018-06-14T01:45:55.874Z,84.21
2018-06-14T01:48:24.601Z,83.60
2018-06-14T01:50:53.341Z,84.39
2018-06-14T01:53:22.043Z,84.11
2018-06-14T01:55:50.782Z,84.41
2018-06-14T01:58:19.590Z,84.12
2018-06-14T02:00:48.367Z,84.18
2018-06-14T02:03:17.110Z,83.51
2018-06-14T02:05:46.057Z,83.52
2018-06-14T02:08:14.861Z,82.94
2018-06-14T02:10:43.609Z,82.99
2018-06-14T02:13:12.450Z,83.93
2018-06-14T02:15:41.200Z,84.30
2018-06-14T02:18:09.966Z,84.67
2018-06-14T02:20:38.714Z,85.89
2018-06-14T02:23:07.439Z,86.14
2018-06-14T02:25:36.239Z,85.60
2018-06-14T02:28:04.981Z,85.46
2018-06-14T02:30:33.678Z,84.81
2018-06-14T02:33:02.374Z,83.56
2018-06-14T02:35:31.242Z,84.86
2018-06-14T02:37:59.954Z,83.97
2018-06-14T02:40:28.650Z,83.69
2018-06-14T02:42:57.393Z,83.02
2018-06-14T02:45:26.091Z,83.69
2018-06-14T02:47:54.907Z,84.17
2018-06-14T02:50:23.677Z,83.72
2018-06-14T02:52:52.391Z,84.05
2018-06-14T02:55:21.174Z,83.22
2018-06-14T02:57:49.930Z,83.64
2018-06-14T03:00:18.777Z,83.60
2018-06-14T03:02:47.526Z,83.04
2018-06-14T03:05:16.294Z,82.30
2018-06-14T03:07:45.023Z,83.08
2018-06-14T03:10:13.756Z,82.20
2018-06-14T03:12:42.514Z,81.47
2018-06-14T03:15:11.238Z,81.59
2018-06-14T03:17:39.965Z,81.09
2018-06-14T03:20:08.761Z,81.74
2018-06-14T03:22:37.600Z,82.26
2018-06-14T03:25:06.315Z,80.92
2018-06-14T03:27:35.057Z,80.33
2018-06-14T03:30:03.856Z,78.87
2018-06-14T03:32:32.644Z,79.92
2018-06-14T03:35:01.397Z,79.78
2018-06-14T03:37:30.104Z,79.36
2018-06-14T03:39:58.816Z,80.06
2018-06-14T03:42:27.598Z,78.85
2018-06-14T03:44:56.396Z,78.88
2018-06-14T03:47:25.111Z,78.67
2018-06-14T03:49:53.873Z,78.13
2018-06-14T03:52:22.592Z,78.09
2018-06-14T03:54:51.311Z,78.12
2018-06-14T03:57:20.066Z,76.94
2018-06-14T03:59:48.878Z,77.14
2018-06-14T04:02:17.590Z,74.51
2018-06-14T04:04:46.327Z,74.55
2018-06-14T04:07:15.113Z,74.37
2018-06-14T04:09:43.807Z,74.86
2018-06-14T04:12:12.594Z,74.84
2018-06-14T04:14:41.478Z,75.78
2018-06-14T04:17:10.286Z,74.88
2018-06-14T04:19:39.041Z,75.55
2018-06-14T04:22:07.778Z,73.88
2018-06-14T04:24:36.633Z,73.67
2018-06-14T04:27:05.379Z,72.27
2018-06-14T04:29:34.102Z,71.74
2018-06-14T04:32:02.827Z,71.22
2018-06-14T04:34:31.565Z,71.01
2018-06-14T04:37:00.290Z,71.06
2018-06-14T04:39:29.001Z,70.70
2018-06-14T04:41:57.780Z,72.56
2018-06-14T04:44:26.477Z,70.00
2018-06-14T04:46:55.260Z,69.79
2018-06-14T04:49:24.010Z,70.57
2018-06-14T04:51:52.734Z,70.16
2018-06-14T04:54:21.430Z,71.37
2018-06-14T04:56:50.389Z,70.43
2018-06-14T04:59:19.263Z,68.81
2018-06-14T05:01:48.145Z,69.40
2018-06-14T05:04:16.885Z,68.90
2018-06-14T05:06:45.597Z,67.91
2018-06-14T05:09:14.695Z,68.09
2018-06-14T05:11:43.422Z,68.45
2018-06-14T05:14:12.103Z,66.63
2018-06-14T05:16:40.806Z,63.45
2018-06-14T05:19:09.549Z,60.26
2018-06-14T05:21:39.081Z,56.69
2018-06-14T05:24:07.785Z,54.12
2018-06-14T05:26:36.502Z,49.49
2018-06-14T05:29:05.848Z,48.75
2018-06-14T05:31:34.587Z,46.82
2018-06-14T05:34:03.354Z,44.68
2018-06-14T05:36:32.234Z,43.07
2018-06-14T05:39:00.969Z,41.95
2018-06-14T05:41:29.748Z,41.13
2018-06-14T05:43:58.600Z,40.28
2018-06-14T05:46:27.333Z,40.09
2018-06-14T05:48:56.441Z,39.76
2018-06-14T05:51:25.149Z,39.63
2018-06-14T05:53:53.917Z,42.88
2018-06-14T05:56:22.624Z,44.69
2018-06-14T05:58:51.325Z,47.37
2018-06-14T06:01:20.157Z,47.73
2018-06-14T06:03:48.881Z,49.32
2018-06-14T06:06:17.582Z,48.13
2018-06-14T06:08:46.388Z,49.24
2018-06-14T06:11:16.082Z,49.18
2018-06-14T06:13:45.409Z,50.09
2018-06-14T06:16:14.140Z,50.80
2018-06-14T06:18:42.841Z,53.56
2018-06-14T06:21:11.588Z,53.05
2018-06-14T06:23:40.557Z,53.83
2018-06-14T06:26:09.350Z,53.27
2018-06-14T06:28:38.045Z,53.11
2018-06-14T06:31:06.769Z,54.04
2018-06-14T06:33:35.507Z,54.31
2018-06-14T06:36:04.216Z,53.99
2018-06-14T06:38:32.961Z,55.97
2018-06-14T06:41:01.688Z,54.81
2018-06-14T06:43:30.590Z,54.79
2018-06-14T06:45:59.335Z,55.13
2018-06-14T06:48:28.072Z,56.68
2018-06-14T06:50:56.894Z,57.60
2018-06-14T06:53:25.678Z,59.16
2018-06-14T06:55:54.450Z,58.29
2018-06-14T06:58:23.155Z,58.22
2018-06-14T07:00:51.902Z,59.57
2018-06-14T07:03:20.601Z,56.02
2018-06-14T07:05:49.347Z,56.85
2018-06-14T07:08:18.089Z,58.19
2018-06-14T07:10:46.844Z,59.84
2018-06-14T07:13:15.605Z,60.18
2018-06-14T07:15:44.442Z,59.87
2018-06-14T07:18:13.227Z,60.37
2018-06-14T07:20:41.938Z,61.53
2018-06-14T07:23:10.670Z,61.59
2018-06-14T07:25:39.383Z,62.52
2018-06-14T07:28:07.763Z,64.11
2018-06-14T07:30:36.551Z,65.77
2018-06-14T07:33:05.313Z,69.04
2018-06-14T07:35:34.023Z,72.94
2018-06-14T07:38:02.782Z,75.07
2018-06-14T07:40:31.495Z,77.05
2018-06-14T07:43:00.210Z,78.58
2018-06-14T07:45:28.969Z,80.43
2018-06-14T07:47:57.718Z,81.41
2018-06-14T07:50:26.445Z,84.43
2018-06-14T07:52:55.181Z,86.66
2018-06-14T07:55:23.918Z,85.70
2018-06-14T07:57:52.634Z,86.17
2018-06-14T08:00:21.439Z,84.81
2018-06-14T08:02:50.204Z,85.37
2018-06-14T08:05:18.989Z,86.35
2018-06-14T08:07:47.744Z,87.13
2018-06-14T08:10:16.445Z,87.64
2018-06-14T08:12:45.275Z,88.67
2018-06-14T08:15:13.982Z,88.43
2018-06-14T08:17:42.726Z,87.22
2018-06-14T08:20:11.445Z,89.47
2018-06-14T08:22:40.177Z,90.10
2018-06-14T08:25:08.930Z,90.43
2018-06-14T08:27:37.654Z,90.41
2018-06-14T08:30:06.863Z,91.35
2018-06-14T08:32:35.581Z,92.05
2018-06-14T08:35:04.293Z,92.27
2018-06-14T08:37:33.047Z,94.87
2018-06-14T08:40:02.128Z,95.55
2018-06-14T08:42:30.925Z,96.30
2018-06-14T08:44:59.765Z,97.11
2018-06-14T08:47:28.484Z,95.20
2018-06-14T08:49:57.182Z,93.74
2018-06-14T08:52:26.117Z,96.86
2018-06-14T08:54:54.846Z,99.27
2018-06-14T08:57:24.437Z,99.49
2018-06-14T08:59:53.185Z,99.01
2018-06-14T09:02:21.914Z,100.00
2018-06-14T09:04:50.762Z,100.00
2018-06-14T09:07:19.533Z,99.33
2018-06-14T09:09:48.271Z,99.75
2018-06-14T09:12:16.990Z,99.27
2018-06-14T09:14:45.763Z,100.00
2018-06-14T09:17:14.499Z,100.00
2018-06-14T09:19:43.248Z,100.00
2018-06-14T09:22:12.033Z,100.00
2018-06-14T09:24:40.860Z,100.00
2018-06-14T09:27:09.569Z,100.00
2018-06-14T09:29:38.373Z,100.00
2018-06-14T09:32:07.097Z,100.00
2018-06-14T09:34:35.846Z,100.00
2018-06-14T09:37:04.569Z,100.00
2018-06-14T09:39:33.305Z,100.00
2018-06-14T09:42:02.006Z,92.89
2018-06-14T09:44:30.733Z,94.57
2018-06-14T09:46:59.433Z,94.69
2018-06-14T09:49:28.130Z,97.46
2018-06-14T09:51:56.856Z,97.65
2018-06-14T09:54:25.705Z,98.30
2018-06-14T09:56:54.450Z,99.04
2018-06-14T09:59:23.201Z,97.58
2018-06-14T10:01:51.954Z,98.70
2018-06-14T10:04:20.678Z,97.75
2018-06-14T10:06:49.413Z,97.11
2018-06-14T10:09:18.109Z,95.41
2018-06-14T10:11:46.802Z,94.09
2018-06-14T10:14:15.559Z,91.04
2018-06-14T10:16:44.272Z,86.73
2018-06-14T10:19:12.958Z,78.55
2018-06-14T10:21:41.710Z,77.55
2018-06-14T10:24:10.423Z,72.29
2018-06-14T10:26:39.154Z,63.73
2018-06-14T10:29:07.894Z,61.83
2018-06-14T10:31:36.617Z,59.38
2018-06-14T10:34:05.442Z,57.84
2018-06-14T10:36:34.175Z,53.63
2018-06-14T10:39:03.081Z,50.24
2018-06-14T10:41:31.806Z,46.54
2018-06-14T10:44:00.695Z,42.28
2018-06-14T10:46:29.414Z,41.37
2018-06-14T10:48:58.732Z,43.45
2018-06-14T10:51:27.530Z,44.89
2018-06-14T10:53:56.310Z,44.02
2018-06-14T10:56:25.026Z,41.72
2018-06-14T10:58:53.754Z,46.08
2018-06-14T11:01:22.478Z,49.22
2018-06-14T11:03:51.454Z,49.54
2018-06-14T11:06:20.202Z,53.59
2018-06-14T11:08:50.032Z,54.19
2018-06-14T11:11:18.781Z,54.27
2018-06-14T11:13:47.530Z,57.81
2018-06-14T11:16:16.238Z,57.35
2018-06-14T11:18:44.973Z,58.70
2018-06-14T11:21:13.705Z,56.43
2018-06-14T11:23:42.543Z,58.57
2018-06-14T11:26:11.259Z,62.09
2018-06-14T11:28:39.990Z,63.49
2018-06-14T11:31:08.788Z,59.06
2018-06-14T11:33:37.614Z,56.32
2018-06-14T11:36:06.358Z,56.37
2018-06-14T11:38:35.157Z,50.40
2018-06-14T11:41:03.963Z,49.21
2018-06-14T11:43:32.722Z,51.59
2018-06-14T11:46:01.487Z,47.41
2018-06-14T11:48:30.264Z,48.09
2018-06-14T11:50:59.017Z,48.84
2018-06-14T11:53:27.765Z,48.29
2018-06-14T11:55:56.457Z,50.09
2018-06-14T11:58:25.289Z,49.86
2018-06-14T12:00:53.981Z,51.17
2018-06-14T12:03:22.802Z,51.32
2018-06-14T12:05:51.804Z,47.10
2018-06-14T12:08:20.540Z,47.88
2018-06-14T12:10:49.241Z,45.26
2018-06-14T12:13:17.977Z,44.15
2018-06-14T12:15:46.706Z,45.02
2018-06-14T12:18:15.409Z,43.49
2018-06-14T12:20:44.350Z,44.10
2018-06-14T12:23:13.063Z,45.33
2018-06-14T12:25:41.854Z,44.43
2018-06-14T12:28:10.597Z,46.55
2018-06-14T12:30:39.404Z,47.30
2018-06-14T12:33:08.471Z,51.46
2018-06-14T12:35:37.283Z,52.98
2018-06-14T12:38:06.014Z,52.91
2018-06-14T12:40:34.743Z,52.52
2018-06-14T12:43:03.520Z,53.92
2018-06-14T12:45:32.278Z,55.72
2018-06-14T12:48:00.995Z,52.67
2018-06-14T12:50:29.776Z,54.17
2018-06-14T12:52:58.580Z,55.11
2018-06-14T12:55:27.380Z,55.93
2018-06-14T12:57:56.172Z,54.51
2018-06-14T13:00:24.887Z,54.39
2018-06-14T13:02:53.666Z,55.04
2018-06-14T13:05:22.542Z,54.45
2018-06-14T13:07:51.270Z,55.09
2018-06-14T13:10:20.025Z,52.94
2018-06-14T13:12:48.775Z,54.53
2018-06-14T13:15:17.621Z,54.84
2018-06-14T13:17:46.709Z,56.38
2018-06-14T13:20:15.459Z,56.05
2018-06-14T13:22:44.184Z,56.66
2018-06-14T13:25:12.923Z,53.35
2018-06-14T13:27:41.706Z,52.96
2018-06-14T13:30:10.417Z,54.04
2018-06-14T13:32:39.154Z,53.45
2018-06-14T13:35:07.923Z,54.33
2018-06-14T13:37:36.678Z,53.80
2018-06-14T13:40:05.593Z,54.38
2018-06-14T13:42:34.473Z,56.02
2018-06-14T13:45:03.267Z,58.73
2018-06-14T13:47:31.969Z,58.54
2018-06-14T13:50:00.729Z,60.62
2018-06-14T13:52:29.778Z,60.18
2018-06-14T13:54:58.534Z,61.62
2018-06-14T13:57:27.286Z,62.65
2018-06-14T13:59:56.039Z,64.00
2018-06-14T14:02:24.878Z,64.15
2018-06-14T14:04:53.622Z,64.68
2018-06-14T14:07:29.422Z,68.07
2018-06-14T14:09:59.290Z,67.58
2018-06-14T14:12:28.368Z,68.58
2018-06-14T14:15:02.626Z,69.88
2018-06-14T14:17:31.343Z,70.66
2018-06-14T14:20:00.181Z,73.04
2018-06-14T14:22:28.966Z,74.15
2018-06-14T14:24:57.676Z,72.91
2018-06-14T14:27:26.394Z,72.84
2018-06-14T14:29:55.187Z,72.96
2018-06-14T14:32:24.087Z,75.73
2018-06-14T14:34:52.801Z,73.29
2018-06-14T14:37:21.574Z,74.75
2018-06-14T14:39:50.294Z,73.79
2018-06-14T14:42:19.025Z,74.97
2018-06-14T14:44:47.755Z,73.25
2018-06-14T14:47:16.470Z,75.22
2018-06-14T14:49:45.204Z,75.29
2018-06-14T14:52:14.067Z,76.57
2018-06-14T14:54:42.878Z,75.95
2018-06-14T14:57:11.595Z,75.74
2018-06-14T14:59:40.404Z,78.51
2018-06-14T15:02:09.146Z,80.68
2018-06-14T15:04:37.878Z,82.73
2018-06-14T15:07:06.625Z,86.01
2018-06-14T15:09:35.328Z,87.20
2018-06-14T15:12:04.072Z,87.04
2018-06-14T15:14:32.874Z,88.26
2018-06-14T15:17:01.600Z,89.04
2018-06-14T15:19:30.327Z,89.33
2018-06-14T15:21:59.197Z,89.31
2018-06-14T15:24:27.951Z,89.93
2018-06-14T15:26:56.679Z,90.97
2018-06-14T15:29:25.536Z,94.69
2018-06-14T15:31:54.253Z,95.72
2018-06-14T15:34:22.973Z,91.94
2018-06-14T15:36:51.754Z,96.16
2018-06-14T15:39:20.671Z,92.68
2018-06-14T15:41:49.407Z,88.85
2018-06-14T15:44:18.142Z,89.62
2018-06-14T15:46:46.859Z,90.45
2018-06-14T15:51:43.362Z,92.50
2018-06-14T15:54:14.551Z,92.45
2018-06-14T15:56:43.708Z,92.27
2018-06-14T15:59:13.645Z,89.20
2018-06-14T16:01:42.399Z,90.19
2018-06-14T16:04:11.358Z,90.88
2018-06-14T16:06:40.079Z,90.52
2018-06-14T16:09:10.994Z,89.83
2018-06-14T16:11:40.012Z,90.33
2018-06-14T16:14:08.750Z,89.09
2018-06-14T16:16:37.458Z,89.71
2018-06-14T16:19:06.491Z,90.44
2018-06-14T16:21:35.260Z,89.38
2018-06-14T16:24:04.176Z,89.34
2018-06-14T16:26:32.921Z,90.60
2018-06-14T16:29:01.671Z,92.48
2018-06-14T16:31:30.453Z,92.87
2018-06-14T16:33:59.206Z,92.89
2018-06-14T16:36:28.018Z,94.96
2018-06-14T16:38:56.782Z,94.70
2018-06-14T16:41:25.610Z,93.77
2018-06-14T16:43:54.315Z,91.45
2018-06-14T16:46:23.147Z,91.23
2018-06-14T16:48:51.889Z,92.19
2018-06-14T16:51:20.622Z,93.94
2018-06-14T16:53:49.335Z,94.76
2018-06-14T16:56:18.129Z,95.33
2018-06-14T16:58:47.125Z,96.79
2018-06-14T17:01:15.974Z,98.99
2018-06-14T17:03:44.758Z,99.95
2018-06-14T17:06:13.474Z,99.69
2018-06-14T17:08:42.249Z,100.00
2018-06-14T17:11:11.046Z,100.00
2018-06-14T17:13:39.837Z,99.72
2018-06-14T17:16:08.804Z,100.00
2018-06-14T17:18:37.537Z,100.00
2018-06-14T17:21:06.275Z,100.00
2018-06-14T17:23:35.229Z,100.00
2018-06-14T17:26:04.145Z,100.00
2018-06-14T17:28:33.060Z,100.00
2018-06-14T17:31:01.828Z,100.00
2018-06-14T17:33:30.611Z,100.00
2018-06-14T17:35:59.359Z,100.00
2018-06-14T17:38:28.106Z,100.00
2018-06-14T17:40:56.892Z,100.00
2018-06-14T17:43:25.634Z,100.00
2018-06-14T17:45:54.362Z,100.00
2018-06-14T17:48:23.178Z,100.00
2018-06-14T17:50:51.877Z,100.00
2018-06-14T17:53:20.632Z,100.00
2018-06-14T17:55:49.450Z,100.00
2018-06-14T17:58:18.153Z,100.00
2018-06-14T18:00:46.905Z,100.00
2018-06-14T18:03:15.625Z,100.00
2018-06-14T18:05:44.334Z,100.00
2018-06-14T18:08:13.037Z,100.00
2018-06-14T18:10:41.817Z,100.00
2018-06-14T18:13:10.521Z,100.00
2018-06-14T18:15:39.228Z,100.00
2018-06-14T18:18:07.978Z,100.00
2018-06-14T18:20:36.691Z,100.00
2018-06-14T18:23:05.409Z,100.00
2018-06-14T18:25:34.136Z,100.00
2018-06-14T18:28:02.862Z,100.00
2018-06-14T18:30:31.570Z,100.00
2018-06-14T18:33:00.332Z,100.00
2018-06-14T18:35:29.041Z,100.00
2018-06-14T18:37:57.802Z,100.00
2018-06-14T18:40:26.549Z,100.00
2018-06-14T18:42:55.245Z,100.00
2018-06-14T18:45:24.019Z,100.00
2018-06-14T18:47:52.757Z,100.00
2018-06-14T18:50:21.517Z,100.00
2018-06-14T18:52:50.277Z,100.00
2018-06-14T18:55:19.010Z,100.00
2018-06-14T18:57:47.733Z,100.00
2018-06-14T19:00:18.218Z,100.00
2018-06-14T19:02:46.945Z,100.00
2018-06-14T19:05:15.661Z,100.00
2018-06-14T19:07:44.391Z,99.53
2018-06-14T19:10:13.147Z,98.64
2018-06-14T19:12:41.909Z,98.98
2018-06-14T19:15:10.679Z,96.66
2018-06-14T19:17:39.928Z,97.98
2018-06-14T19:20:08.773Z,96.59
2018-06-14T19:22:37.520Z,96.19
2018-06-14T19:25:06.499Z,97.82
2018-06-14T19:27:35.206Z,97.77
2018-06-14T19:30:04.067Z,97.42
2018-06-14T19:32:32.884Z,98.74
2018-06-14T19:35:01.597Z,100.00
2018-06-14T19:37:30.393Z,100.00
2018-06-14T19:39:59.229Z,100.00
2018-06-14T19:42:27.942Z,100.00
2018-06-14T19:44:56.658Z,100.00
2018-06-14T19:47:25.486Z,100.00
2018-06-14T19:49:54.242Z,100.00
2018-06-14T19:52:22.957Z,100.00
2018-06-14T19:54:51.732Z,100.00
2018-06-14T19:57:20.468Z,100.00
2018-06-14T19:59:49.192Z,98.09
2018-06-14T20:02:17.981Z,97.58
2018-06-14T20:04:46.737Z,97.35
2018-06-14T20:07:15.494Z,96.25
2018-06-14T20:09:44.229Z,97.76
2018-06-14T20:12:12.975Z,98.03
2018-06-14T20:14:41.694Z,98.55
2018-06-14T20:17:10.456Z,97.79
2018-06-14T20:19:39.187Z,99.32
2018-06-14T20:22:07.914Z,100.00
2018-06-14T20:24:36.674Z,100.00
2018-06-14T20:27:05.450Z,100.00
2018-06-14T20:29:34.185Z,99.17
2018-06-14T20:32:02.979Z,100.00
2018-06-14T20:34:31.684Z,100.00
2018-06-14T20:37:00.386Z,100.00
2018-06-14T20:39:29.172Z,100.00
2018-06-14T20:41:57.988Z,100.00
2018-06-14T20:44:26.654Z,100.00
2018-06-14T20:46:55.418Z,100.00
2018-06-14T20:49:24.486Z,100.00
2018-06-14T20:51:53.248Z,100.00
2018-06-14T20:54:22.047Z,100.00
2018-06-14T20:56:50.790Z,100.00
2018-06-14T20:59:19.521Z,100.00
2018-06-14T21:01:48.259Z,100.00
2018-06-14T21:04:17.060Z,100.00
2018-06-14T21:06:45.825Z,100.00
2018-06-14T21:09:14.730Z,100.00
2018-06-14T21:11:43.483Z,100.00
2018-06-14T21:14:12.198Z,100.00
2018-06-14T21:16:40.930Z,100.00
2018-06-14T21:19:09.650Z,100.00
2018-06-14T21:21:38.362Z,100.00
2018-06-14T21:24:07.196Z,100.00
2018-06-14T21:26:36.346Z,100.00
2018-06-14T21:29:05.081Z,100.00
2018-06-14T21:31:34.102Z,100.00
2018-06-14T21:34:02.807Z,100.00
2018-06-14T21:36:31.565Z,100.00
2018-06-14T21:39:00.331Z,100.00
2018-06-14T21:41:29.039Z,100.00
2018-06-14T21:43:57.740Z,100.00
2018-06-14T21:46:26.481Z,100.00
2018-06-14T21:48:55.335Z,100.00
2018-06-14T21:51:24.328Z,100.00
2018-06-14T21:53:53.161Z,100.00
2018-06-14T21:56:21.965Z,100.00
2018-06-14T21:58:50.686Z,100.00
2018-06-14T22:01:20.446Z,100.00
2018-06-14T22:03:54.111Z,100.00
2018-06-14T22:06:22.900Z,100.00
2018-06-14T22:08:51.836Z,100.00
2018-06-14T22:11:20.601Z,100.00
2018-06-14T22:13:49.402Z,100.00
2018-06-14T22:16:18.141Z,100.00
2018-06-14T22:18:46.867Z,100.00
2018-06-14T22:21:16.217Z,100.00
2018-06-14T22:23:45.176Z,100.00
2018-06-14T22:26:14.061Z,100.00
2018-06-14T22:28:42.842Z,100.00
2018-06-14T22:31:11.597Z,100.00
2018-06-14T22:33:51.325Z,100.00
2018-06-14T22:36:20.132Z,100.00
2018-06-14T22:38:48.911Z,100.00
2018-06-14T22:41:17.666Z,100.00
2018-06-14T22:43:46.440Z,100.00
2018-06-14T22:46:15.194Z,100.00
2018-06-14T22:48:44.023Z,100.00
2018-06-14T22:51:22.579Z,100.00
2018-06-14T22:53:51.426Z,100.00
2018-06-14T22:56:20.203Z,100.00
2018-06-14T22:58:49.158Z,100.00
2018-06-14T23:01:35.379Z,100.00
2018-06-14T23:04:04.617Z,100.00
2018-06-14T23:06:33.427Z,100.00
2018-06-14T23:09:11.963Z,100.00
2018-06-14T23:11:40.882Z,100.00
2018-06-14T23:14:09.645Z,100.00
2018-06-14T23:16:38.379Z,100.00
2018-06-14T23:19:07.339Z,100.00
2018-06-14T23:21:36.096Z,100.00
2018-06-14T23:24:04.882Z,100.00
2018-06-14T23:26:33.665Z,100.00
2018-06-14T23:29:02.419Z,100.00
2018-06-14T23:31:31.200Z,100.00
2018-06-14T23:33:59.969Z,100.00
2018-06-14T23:36:28.739Z,100.00
2018-06-14T23:38:57.692Z,100.00
2018-06-14T23:41:26.434Z,100.00
2018-06-14T23:43:55.200Z,100.00
2018-06-14T23:46:23.995Z,100.00
2018-06-14T23:48:52.767Z,100.00
2018-06-14T23:51:21.518Z,100.00
2018-06-14T23:53:50.322Z,100.00
2018-06-14T23:56:19.091Z,100.00
2018-06-14T23:58:47.844Z,100.00
